Time;durP1;ratioP1;P1;durP2;ratioP2;P2;SDS_P1;SDS_P2;PMS_P1;PMS_P2;Temp;Humidity;BMP_temperature;BMP_pressure;BME280_temperature;BME280_humidity;BME280_pressure;Samples;Min_cycle;Max_cycle;Signal;HPM_P1;HPM_P2
2023/04/02 14:52:52;;;;;;;8.93;1.98;;;;;;;10.01;68.87;101746.22;6309704;22;1486342;-95
2023/04/02 14:55:30;;;;;;;12.68;2.97;;;;;;;10.31;68.69;101733.16;6366074;22;20030;-96
2023/04/02 14:58:00;;;;;;;9.77;3.15;;;;;;;10.12;67.56;101732.94;6355161;22;19998;-92
2023/04/02 15:00:42;;;;;;;10.07;2.58;;;;;;;10.14;69.34;101728.56;6357096;22;20002;-95
2023/04/02 15:03:23;;;;;;;6.32;1.90;;;;;;;10.14;67.02;101726.81;6366295;22;20003;-96
2023/04/02 15:05:57;;;;;;;6.20;1.70;;;;;;;10.47;66.31;101736.88;6356433;22;20419;-93
2023/04/02 15:08:32;;;;;;;7.20;2.03;;;;;;;10.44;65.13;101747.34;6354612;22;20010;-94
2023/04/02 15:11:20;;;;;;;6.30;2.42;;;;;;;10.31;62.32;101753.81;6354783;22;20033;-95
2023/04/02 15:14:17;;;;;;;10.25;1.73;;;;;;;10.14;62.90;101739.72;6350855;22;20081;-95
2023/04/02 15:16:43;;;;;;;10.18;2.05;;;;;;;10.19;61.78;101743.00;6346280;22;20384;-95
2023/04/02 15:19:14;;;;;;;9.02;1.75;;;;;;;10.01;65.50;101736.72;6350389;22;20025;-94
2023/04/02 15:21:51;;;;;;;6.53;1.60;;;;;;;10.08;64.27;101755.44;6358795;22;20018;-95
2023/04/02 15:24:21;;;;;;;15.70;2.17;;;;;;;10.10;64.73;101748.47;6364041;22;19994;-96
2023/04/02 15:26:50;;;;;;;15.27;3.00;;;;;;;10.06;67.18;101746.88;6362119;22;20002;-94
2023/04/02 15:29:51;;;;;;;6.90;1.55;;;;;;;10.01;66.94;101749.63;6349013;22;20077;-96
2023/04/02 15:32:22;;;;;;;7.82;1.98;;;;;;;9.94;64.63;101748.16;6346308;22;20006;-96
2023/04/02 15:35:15;;;;;;;7.90;1.75;;;;;;;9.95;65.69;101749.84;6346229;22;20003;-96
2023/04/02 15:38:04;;;;;;;10.82;1.40;;;;;;;9.90;64.11;101727.66;6345762;22;20422;-95
2023/04/02 15:40:46;;;;;;;12.48;2.35;;;;;;;9.86;64.31;101742.41;6324223;22;20011;-96
2023/04/02 15:43:36;;;;;;;6.90;1.52;;;;;;;9.66;63.96;101743.09;6344991;22;20007;-96
2023/04/02 15:46:24;;;;;;;10.27;1.52;;;;;;;9.66;63.60;101737.94;6344821;22;20055;-96
2023/04/02 15:49:06;;;;;;;9.52;2.30;;;;;;;9.52;64.06;101753.00;6344967;22;20085;-96
2023/04/02 15:51:50;;;;;;;11.35;2.20;;;;;;;9.63;66.70;101753.47;6343231;22;20081;-96
2023/04/02 15:54:21;;;;;;;6.95;1.83;;;;;;;9.59;68.29;101757.06;6337788;22;20009;-96
2023/04/02 15:56:46;;;;;;;8.75;2.20;;;;;;;9.52;64.61;101755.56;6339252;22;19995;-95
2023/04/02 15:59:34;;;;;;;8.15;1.77;;;;;;;9.60;65.40;101751.00;6365561;22;19997;-96
2023/04/02 16:02:15;;;;;;;8.85;2.10;;;;;;;9.51;64.66;101748.72;6365617;22;20024;-96
2023/04/02 16:05:03;;;;;;;12.35;1.85;;;;;;;9.49;64.15;101753.09;6356639;22;20427;-96
2023/04/02 16:07:44;;;;;;;7.80;2.30;;;;;;;9.51;64.33;101751.28;6338746;22;20037;-96
2023/04/02 16:10:43;;;;;;;10.20;1.92;;;;;;;9.31;68.96;101750.19;6338224;22;20469;-96
2023/04/02 16:13:28;;;;;;;11.63;1.83;;;;;;;9.24;69.02;101745.25;6256227;22;20018;-96
2023/04/02 16:16:16;;;;;;;6.85;1.88;;;;;;;9.25;67.76;101749.53;6339756;22;20097;-96
2023/04/02 16:19:15;;;;;;;8.63;2.17;;;;;;;9.27;65.40;101771.78;6339050;22;19998;-96
2023/04/02 16:21:48;;;;;;;4.05;1.48;;;;;;;9.21;64.53;101764.25;6338017;22;20399;-96
2023/04/02 16:24:14;;;;;;;14.65;1.80;;;;;;;9.15;63.32;101746.41;6339484;22;20010;-96
2023/04/02 16:27:23;;;;;;;11.38;1.92;;;;;;;9.08;63.81;101744.91;6339150;22;20002;-96
2023/04/02 16:30:26;;;;;;;7.43;1.85;;;;;;;9.16;67.35;101761.81;6340934;22;20056;-96
2023/04/02 16:32:55;;;;;;;12.77;2.50;;;;;;;9.21;68.89;101766.81;6337858;22;20006;-96
2023/04/02 16:35:57;;;;;;;18.38;2.20;;;;;;;9.20;67.69;101760.00;6337292;22;20014;-96
2023/04/02 16:38:32;;;;;;;;;;;;;;;9.21;66.14;101766.81;6337706;22;20480;-95
2023/04/02 16:42:14;;;;;;;7.70;1.70;;;;;;;9.16;66.08;101773.84;5089407;27;20432;-94
2023/04/02 16:45:07;;;;;;;9.10;2.03;;;;;;;9.15;65.86;101767.00;5086264;28;20033;-95
2023/04/02 16:47:44;;;;;;;7.07;1.58;;;;;;;9.15;68.64;101772.16;5066606;28;20048;-94
2023/04/02 16:50:55;;;;;;;16.17;2.83;;;;;;;8.95;66.30;101778.75;5073069;28;20478;-93
2023/04/02 16:53:49;;;;;;;8.55;1.65;;;;;;;9.09;68.72;101765.44;5072255;28;20071;-94
2023/04/02 16:57:09;;;;;;;8.38;1.80;;;;;;;9.15;68.67;101791.03;5086626;28;20417;-95
2023/04/02 16:59:57;;;;;;;6.13;1.63;;;;;;;9.20;69.58;101776.28;5038998;28;20056;-95
2023/04/02 17:02:35;;;;;;;11.50;1.80;;;;;;;9.10;69.64;101780.03;5051941;28;20039;-96
2023/04/02 17:05:31;;;;;;;8.73;1.50;;;;;;;9.02;68.91;101786.28;5077837;28;20089;-95
2023/04/02 17:08:17;;;;;;;10.55;2.45;;;;;;;8.81;70.46;101788.59;5080598;28;20112;-96
2023/04/02 17:11:05;;;;;;;7.53;2.25;;;;;;;8.62;71.92;101798.56;5062073;28;20036;-96
2023/04/02 17:13:42;;;;;;;8.88;1.98;;;;;;;8.46;74.67;101793.00;5069167;28;20275;-95
2023/04/02 17:16:07;;;;;;;6.80;1.77;;;;;;;8.35;75.62;101800.94;5066733;28;20467;-96
2023/04/02 17:18:39;;;;;;;5.63;1.70;;;;;;;8.25;76.00;101788.38;5083456;28;20060;-95
2023/04/02 17:21:14;;;;;;;11.95;1.83;;;;;;;8.12;75.93;101783.56;5063705;28;20084;-95
2023/04/02 17:24:01;;;;;;;10.30;1.73;;;;;;;8.11;76.74;101801.59;5081885;28;20343;-96
2023/04/02 17:26:33;;;;;;;7.57;1.70;;;;;;;8.04;76.90;101795.75;5069618;28;20032;-96
2023/04/02 17:29:07;;;;;;;6.13;1.80;;;;;;;8.04;76.31;101790.59;5074733;28;20474;-96
2023/04/02 17:32:01;;;;;;;9.23;1.83;;;;;;;8.09;75.12;101791.31;5079207;28;20040;-96
2023/04/02 17:34:27;;;;;;;12.05;2.00;;;;;;;8.06;73.01;101803.44;5058008;28;20410;-95
2023/04/02 17:37:12;;;;;;;7.65;2.10;;;;;;;8.05;74.24;101807.75;5061892;28;20107;-95
2023/04/02 17:39:52;;;;;;;5.60;1.67;;;;;;;8.11;73.62;101812.72;5057481;28;20409;-95
2023/04/02 17:42:40;;;;;;;7.05;1.73;;;;;;;8.10;73.59;101821.31;5065212;28;20348;-95
2023/04/02 17:45:36;;;;;;;8.77;1.20;;;;;;;8.18;72.94;101813.41;5072701;28;20025;-95
2023/04/02 17:48:36;;;;;;;10.43;2.97;;;;;;;7.94;73.60;101807.16;5066020;28;20040;-96
2023/04/02 17:51:14;;;;;;;6.70;1.90;;;;;;;7.95;75.05;101826.84;5076953;28;20056;-96
2023/04/02 17:53:56;;;;;;;7.05;1.65;;;;;;;7.84;76.98;101813.41;5058750;28;20025;-96
2023/04/02 17:56:31;;;;;;;8.02;1.67;;;;;;;7.82;74.75;101816.00;5053339;28;20036;-95
2023/04/02 17:59:14;;;;;;;6.07;1.60;;;;;;;7.74;76.42;101817.91;5054094;28;20558;-95
2023/04/02 18:02:17;;;;;;;6.43;1.55;;;;;;;7.61;78.55;101826.81;5055625;28;20033;-95
2023/04/02 18:05:01;;;;;;;9.00;1.85;;;;;;;7.45;79.85;101829.69;5053719;28;20544;-95
2023/04/02 18:07:48;;;;;;;5.30;1.85;;;;;;;7.33;81.66;101821.41;5053884;28;20029;-96
2023/04/02 18:10:26;;;;;;;6.97;1.85;;;;;;;7.21;82.16;101828.50;5054743;28;20111;-95
2023/04/02 18:13:20;;;;;;;8.10;3.28;;;;;;;7.02;83.78;101830.63;5057918;28;20551;-95
2023/04/02 18:15:54;;;;;;;4.18;1.48;;;;;;;6.85;85.45;101830.94;5052989;28;20467;-95
2023/04/02 18:18:41;;;;;;;7.43;2.10;;;;;;;6.67;87.10;101833.84;5050949;28;20503;-95
2023/04/02 18:21:46;;;;;;;7.82;2.25;;;;;;;6.50;88.92;101841.88;5057172;28;20037;-95
2023/04/02 18:24:24;;;;;;;11.82;2.53;;;;;;;6.35;90.11;101844.69;5059808;28;20080;-95
2023/04/02 18:27:22;;;;;;;7.57;2.88;;;;;;;6.22;90.63;101847.47;5065597;28;20069;-94
2023/04/02 18:30:15;;;;;;;8.02;2.10;;;;;;;6.05;92.17;101846.91;5039402;28;20053;-95
2023/04/02 18:33:06;;;;;;;5.50;1.92;;;;;;;5.91;93.32;101839.41;5053560;28;20035;-94
2023/04/02 18:35:47;;;;;;;5.88;2.08;;;;;;;5.79;94.23;101854.97;5053418;28;20402;-95
2023/04/02 18:38:28;;;;;;;4.35;1.67;;;;;;;5.67;95.52;101860.25;5049931;28;20052;-94
2023/04/02 18:41:32;;;;;;;8.55;1.90;;;;;;;5.50;96.80;101858.78;5055485;28;20145;-93
2023/04/02 18:44:11;;;;;;;10.05;2.42;;;;;;;5.45;98.09;101854.59;5020040;28;20037;-96
2023/04/02 18:46:53;;;;;;;4.30;1.67;;;;;;;5.40;99.13;101862.31;5053591;28;20445;-94
2023/04/02 18:49:38;;;;;;;6.22;1.52;;;;;;;5.31;100.00;101863.28;5055292;28;20035;-94
2023/04/02 18:52:14;;;;;;;11.90;2.50;;;;;;;5.22;100.00;101853.19;5050731;28;20029;-94
2023/04/02 18:54:53;;;;;;;6.85;2.00;;;;;;;5.30;100.00;101860.75;5052220;28;20029;-94
2023/04/02 18:57:25;;;;;;;6.47;2.42;;;;;;;5.26;100.00;101857.38;5051639;28;20558;-94
2023/04/02 19:00:00;;;;;;;10.65;2.40;;;;;;;5.24;100.00;101856.56;5046597;28;20090;-94
2023/04/02 19:02:47;;;;;;;5.28;1.42;;;;;;;5.31;100.00;101867.56;5052472;28;20056;-95
2023/04/02 19:05:31;;;;;;;7.70;1.70;;;;;;;5.32;100.00;101871.84;5047844;28;20106;-96
2023/04/02 19:08:04;;;;;;;5.85;1.70;;;;;;;5.25;100.00;101850.56;5052101;28;20020;-94
2023/04/02 19:10:51;;;;;;;7.70;2.28;;;;;;;5.31;100.00;101862.44;5054674;28;20529;-94
2023/04/02 19:13:18;;;;;;;12.15;2.47;;;;;;;5.43;100.00;101877.63;5049181;28;20048;-94
2023/04/02 19:15:53;;;;;;;7.18;2.17;;;;;;;5.46;100.00;101872.50;5052226;28;20111;-95
2023/04/02 19:18:37;;;;;;;6.82;1.63;;;;;;;5.47;100.00;101878.47;5054216;28;20111;-95
2023/04/02 19:21:32;;;;;;;4.57;2.00;;;;;;;5.50;100.00;101880.97;5051250;28;20108;-94
2023/04/02 19:24:17;;;;;;;12.13;2.00;;;;;;;5.42;100.00;101865.72;5050607;28;20017;-95
2023/04/02 19:27:21;;;;;;;9.18;1.92;;;;;;;5.47;100.00;101875.91;5055435;28;20053;-94
2023/04/02 19:30:05;;;;;;;6.28;1.73;;;;;;;5.49;100.00;101895.50;5050896;28;20052;-94
2023/04/02 19:32:46;;;;;;;5.97;2.03;;;;;;;5.47;100.00;101871.63;5051445;28;20059;-95
2023/04/02 19:35:35;;;;;;;7.57;1.83;;;;;;;5.45;99.50;101881.03;5050750;28;20031;-95
2023/04/02 19:38:33;;;;;;;6.20;1.70;;;;;;;5.43;99.32;101885.31;5052953;28;20025;-94
2023/04/02 19:41:55;;;;;;;7.88;2.10;;;;;;;5.50;98.04;101901.47;5051505;28;20136;-95
2023/04/02 19:44:21;;;;;;;7.47;2.00;;;;;;;5.39;98.62;101900.75;5025567;28;20526;-94
2023/04/02 19:46:47;;;;;;;5.40;1.67;;;;;;;5.37;98.63;101911.03;5043029;28;20033;-94
2023/04/02 19:49:15;;;;;;;8.75;1.83;;;;;;;5.34;99.25;101913.59;5052581;28;20064;-94
2023/04/02 19:51:41;;;;;;;22.35;2.42;;;;;;;5.32;96.21;101910.22;5051228;28;20055;-94
2023/04/02 19:54:07;;;;;;;7.90;2.58;;;;;;;5.44;95.36;101915.19;5050508;28;20082;-94
2023/04/02 19:56:33;;;;;;;10.40;2.20;;;;;;;5.50;91.92;101915.09;5051314;28;20033;-93
2023/04/02 19:58:59;;;;;;;6.88;1.75;;;;;;;5.58;88.83;101918.44;5057771;28;20112;-94
2023/04/02 20:01:24;;;;;;;9.52;2.00;;;;;;;5.63;87.31;101925.19;5048520;28;20029;-93
2023/04/02 20:03:52;;;;;;;12.25;1.88;;;;;;;5.81;85.82;101924.97;5045541;28;20039;-93
2023/04/02 20:06:17;;;;;;;6.75;1.85;;;;;;;5.86;85.07;101930.88;5051137;28;20025;-94
2023/04/02 20:08:44;;;;;;;7.28;2.33;;;;;;;6.09;80.55;101929.72;5051371;28;20418;-94
2023/04/02 20:11:10;;;;;;;10.05;2.67;;;;;;;6.02;80.14;101928.94;5056229;28;20041;-93
2023/04/02 20:13:35;;;;;;;6.30;2.00;;;;;;;6.00;79.71;101926.44;5058629;28;20021;-93
2023/04/02 20:16:03;;;;;;;9.35;2.42;;;;;;;6.03;78.83;101927.25;5058981;28;20061;-95
2023/04/02 20:18:30;;;;;;;8.70;2.25;;;;;;;5.99;80.33;101941.81;5052238;28;20415;-93
2023/04/02 20:20:55;;;;;;;5.97;2.22;;;;;;;5.78;81.81;101932.69;5053560;28;20107;-94
2023/04/02 20:23:21;;;;;;;5.28;2.38;;;;;;;5.66;83.52;101945.66;5062489;28;20060;-95
2023/04/02 20:25:51;;;;;;;9.60;2.85;;;;;;;5.58;81.79;101948.31;5055375;28;20494;-94
2023/04/02 20:28:18;;;;;;;9.70;2.50;;;;;;;5.70;81.35;101957.56;5042373;28;20092;-95
2023/04/02 20:30:44;;;;;;;4.93;2.03;;;;;;;5.48;83.27;101947.56;5051089;28;20025;-94
2023/04/02 20:33:09;;;;;;;5.80;2.35;;;;;;;5.35;85.45;101944.31;5050335;28;20135;-93
2023/04/02 20:35:36;;;;;;;10.77;2.30;;;;;;;5.24;87.00;101950.41;5050074;28;20033;-93
2023/04/02 20:38:05;;;;;;;9.23;2.30;;;;;;;5.43;83.65;101944.22;5060856;28;20025;-95
2023/04/02 20:40:31;;;;;;;6.20;2.40;;;;;;;5.36;83.02;101952.84;5049704;28;20033;-94
2023/04/02 20:42:56;;;;;;;6.10;1.70;;;;;;;5.17;83.27;101941.09;5047508;28;20029;-94
2023/04/02 20:45:23;;;;;;;5.13;1.85;;;;;;;5.26;82.22;101951.25;5050909;28;20098;-94
2023/04/02 20:47:48;;;;;;;8.00;2.42;;;;;;;5.09;82.28;101952.25;5051025;28;20032;-95
2023/04/02 20:50:14;;;;;;;5.18;2.22;;;;;;;5.14;81.44;101949.66;5049990;28;20029;-94
2023/04/02 20:52:40;;;;;;;6.03;2.30;;;;;;;5.35;80.54;101961.38;5050947;28;20017;-95
2023/04/02 20:55:06;;;;;;;9.90;2.50;;;;;;;5.29;80.52;101946.97;5050748;28;20035;-95
2023/04/02 20:57:31;;;;;;;8.40;2.30;;;;;;;5.06;81.16;101938.66;5052174;28;20029;-94
2023/04/02 20:59:57;;;;;;;6.82;2.35;;;;;;;5.07;81.36;101951.47;5050473;28;20029;-96
2023/04/02 21:02:23;;;;;;;10.23;2.42;;;;;;;5.24;80.08;101952.97;5050756;28;20048;-94
2023/04/02 21:04:49;;;;;;;7.30;2.30;;;;;;;5.26;79.11;101951.25;5049910;28;20021;-94
2023/04/02 21:07:14;;;;;;;7.60;2.70;;;;;;;5.06;81.63;101954.88;5050453;28;20026;-95
2023/04/02 21:09:40;;;;;;;11.40;2.63;;;;;;;5.19;79.51;101952.19;5051105;28;20360;-95
2023/04/02 21:12:06;;;;;;;4.85;1.95;;;;;;;4.98;80.90;101961.78;5048323;28;20501;-95
2023/04/02 21:14:36;;;;;;;5.22;2.05;;;;;;;4.82;83.13;101962.78;5049477;28;20025;-94
2023/04/02 21:17:02;;;;;;;14.52;2.38;;;;;;;4.82;82.88;101971.28;5050017;28;20112;-95
2023/04/02 21:19:27;;;;;;;5.10;2.00;;;;;;;4.76;83.40;101970.53;5050507;28;20025;-94
2023/04/02 21:21:54;;;;;;;9.70;2.58;;;;;;;4.72;83.81;101980.75;5051083;28;20479;-93
2023/04/02 21:24:19;;;;;;;10.63;2.35;;;;;;;4.59;84.42;101968.09;5050695;28;20447;-94
2023/04/02 21:26:45;;;;;;;15.73;2.00;;;;;;;4.80;82.78;101987.53;5051761;28;20080;-93
2023/04/02 21:29:13;;;;;;;8.68;2.17;;;;;;;4.64;84.18;101982.53;5054016;28;20468;-93
2023/04/02 21:31:40;;;;;;;6.97;2.15;;;;;;;4.60;82.40;101975.75;5054293;28;20502;-95
2023/04/02 21:34:08;;;;;;;5.78;2.55;;;;;;;4.54;82.64;101975.81;5054547;28;20035;-94
2023/04/02 21:36:36;;;;;;;12.20;1.92;;;;;;;4.64;82.31;101974.03;5054436;28;20538;-94
2023/04/02 21:39:10;;;;;;;6.70;2.20;;;;;;;4.61;82.35;101979.13;5053976;28;20028;-94
2023/04/02 21:41:38;;;;;;;4.78;2.17;;;;;;;4.54;82.02;101968.13;5053679;28;20036;-94
2023/04/02 21:44:06;;;;;;;7.35;2.08;;;;;;;4.49;83.20;101993.72;5052890;28;20051;-94
2023/04/02 21:46:34;;;;;;;6.13;2.80;;;;;;;4.51;82.89;101986.03;5053752;28;20390;-94
2023/04/02 21:49:01;;;;;;;6.45;2.10;;;;;;;4.64;81.98;101994.47;5053759;28;20020;-94
2023/04/02 21:51:31;;;;;;;8.98;2.35;;;;;;;4.57;82.44;101991.13;5054163;28;20040;-95
2023/04/02 21:53:57;;;;;;;7.47;2.40;;;;;;;4.54;81.74;101985.19;5054050;28;20540;-95
2023/04/02 21:56:37;;;;;;;5.85;1.88;;;;;;;4.49;82.98;101986.06;5053834;28;20560;-96
2023/04/02 21:59:04;;;;;;;10.30;2.65;;;;;;;4.52;83.31;101982.63;5051709;28;20020;-94
2023/04/02 22:01:34;;;;;;;14.00;2.60;;;;;;;4.60;81.56;101993.66;5052742;28;20475;-94
2023/04/02 22:04:01;;;;;;;9.50;2.40;;;;;;;4.50;82.68;101980.06;5049757;28;20116;-94
2023/04/02 22:06:29;;;;;;;9.13;2.15;;;;;;;4.59;81.95;101975.78;5053224;28;20409;-94
2023/04/02 22:08:57;;;;;;;8.82;2.30;;;;;;;4.46;82.98;101982.66;5053621;28;20025;-93
2023/04/02 22:11:26;;;;;;;5.20;2.90;;;;;;;4.37;84.10;101980.19;5064089;28;20029;-94
2023/04/02 22:13:52;;;;;;;9.88;2.30;;;;;;;4.47;83.29;101986.94;5053361;28;20017;-95
2023/04/02 22:16:22;;;;;;;4.47;2.50;;;;;;;4.34;83.93;101988.75;5052692;28;20083;-95
2023/04/02 22:18:50;;;;;;;5.28;2.47;;;;;;;4.39;83.09;101965.66;5051889;28;20142;-95
2023/04/02 22:21:16;;;;;;;7.90;2.63;;;;;;;4.27;83.72;101977.69;5052760;28;20029;-95
2023/04/02 22:23:43;;;;;;;10.07;3.67;;;;;;;4.31;83.72;101977.66;5051182;28;20492;-94
2023/04/02 22:26:10;;;;;;;8.35;2.60;;;;;;;4.35;83.66;101979.34;5053350;28;20056;-94
2023/04/02 22:28:36;;;;;;;6.90;2.08;;;;;;;4.24;84.60;101982.84;5053108;28;20024;-93
2023/04/02 22:31:20;;;;;;;9.38;2.35;;;;;;;4.23;84.84;101978.56;5052456;28;20025;-93
2023/04/02 22:33:46;;;;;;;10.50;2.08;;;;;;;4.28;83.93;101984.50;5053623;28;20487;-94
2023/04/02 22:36:12;;;;;;;11.18;2.45;;;;;;;4.14;84.80;101982.88;5053515;28;20055;-94
2023/04/02 22:38:38;;;;;;;10.57;2.47;;;;;;;4.11;84.84;101981.19;5055909;28;20049;-94
2023/04/02 22:41:09;;;;;;;7.10;2.38;;;;;;;4.13;85.46;101989.69;5050784;28;20498;-94
2023/04/02 22:43:36;;;;;;;6.22;2.08;;;;;;;3.92;86.14;101975.34;5044166;28;20038;-93
2023/04/02 22:46:03;;;;;;;6.45;2.20;;;;;;;4.12;85.18;101993.13;5039090;28;20033;-94
2023/04/02 22:48:29;;;;;;;9.48;3.53;;;;;;;4.12;85.62;101993.13;5069069;28;20029;-93
2023/04/02 22:50:55;;;;;;;13.27;2.58;;;;;;;3.95;86.10;101975.34;5052868;28;20421;-95
2023/04/02 22:53:21;;;;;;;8.05;2.83;;;;;;;4.06;84.92;101982.94;5053281;28;20044;-93
2023/04/02 22:55:46;;;;;;;3.42;1.85;;;;;;;3.99;85.49;101969.34;5050213;28;20028;-94
2023/04/02 22:58:12;;;;;;;4.82;1.75;;;;;;;3.80;86.41;101973.72;5051669;28;20482;-94
2023/04/02 23:00:38;;;;;;;8.15;2.65;;;;;;;3.70;87.00;101969.47;5052281;28;20037;-94
2023/04/02 23:03:05;;;;;;;8.10;2.45;;;;;;;3.68;87.31;101966.06;5052903;28;20031;-94
2023/04/02 23:05:30;;;;;;;14.90;2.70;;;;;;;3.85;86.28;101969.44;5052655;28;20037;-94
2023/04/02 23:07:55;;;;;;;9.38;2.88;;;;;;;3.71;86.43;101962.69;5052536;28;20491;-95
2023/04/02 23:10:21;;;;;;;12.93;2.80;;;;;;;3.79;86.89;101977.09;5051983;28;20368;-93
2023/04/02 23:12:46;;;;;;;6.97;2.28;;;;;;;3.74;87.19;101976.28;5052948;28;20029;-94
2023/04/02 23:15:12;;;;;;;4.88;1.88;;;;;;;3.65;87.63;101963.53;5052482;28;20383;-93
2023/04/02 23:17:37;;;;;;;5.20;2.22;;;;;;;3.61;88.66;101974.66;5052406;28;20431;-95
2023/04/02 23:20:04;;;;;;;6.72;2.92;;;;;;;3.59;89.18;101976.34;5052366;28;20608;-96
2023/04/02 23:22:30;;;;;;;12.98;2.95;;;;;;;3.73;87.66;101978.81;5052341;28;20116;-95
2023/04/02 23:24:55;;;;;;;13.95;3.97;;;;;;;3.55;88.04;101972.94;5051160;28;20108;-96
2023/04/02 23:27:21;;;;;;;9.52;2.85;;;;;;;3.52;88.31;101959.34;5049809;28;20079;-93
2023/04/02 23:29:47;;;;;;;9.40;2.53;;;;;;;3.42;89.46;101963.66;5052344;28;20462;-95
2023/04/02 23:32:13;;;;;;;11.35;3.28;;;;;;;3.38;89.97;101967.03;5051836;28;20052;-93
2023/04/02 23:34:39;;;;;;;9.60;2.90;;;;;;;3.27;90.45;101954.34;5051750;28;20061;-93
2023/04/02 23:37:04;;;;;;;12.85;3.38;;;;;;;3.52;88.80;101959.34;5051746;28;20024;-93
2023/04/02 23:39:30;;;;;;;11.95;3.03;;;;;;;3.48;89.07;101978.06;5051113;28;20390;-95
2023/04/02 23:41:57;;;;;;;6.55;2.30;;;;;;;3.39;89.61;101964.50;5051215;28;20452;-94
2023/04/02 23:44:24;;;;;;;15.20;3.53;;;;;;;3.29;90.27;101962.84;5051646;28;20111;-93
2023/04/02 23:46:49;;;;;;;7.97;2.60;;;;;;;3.51;89.08;101965.28;5051558;28;20364;-95
2023/04/02 23:49:14;;;;;;;10.88;2.60;;;;;;;3.26;90.89;101965.38;5051113;28;20231;-95
2023/04/02 23:51:40;;;;;;;8.82;3.13;;;;;;;3.43;89.77;101966.16;5051101;28;20478;-94
2023/04/02 23:54:06;;;;;;;9.43;2.67;;;;;;;3.37;90.12;101961.09;5051338;28;20020;-96
2023/04/02 23:56:31;;;;;;;4.28;2.28;;;;;;;3.33;90.74;101953.47;5059456;28;20510;-95
2023/04/02 23:58:57;;;;;;;7.50;2.10;;;;;;;3.40;90.14;101961.09;5051648;28;20028;-95
